x

New Dungeness - 17 Nm Ne Of Port Angeles, Wa (46088) Wave Buoy

9:50 - Fri 24th Feb 2017 All times are PST. -8 hours from GMT.

  • Sig Wave height 1.3ft
  • Swell Direction
  • Peak Period 3s
  • Average Period 3s
  • Wind
    20mph, 22mph gusts
  • Sea Temp 46°f
  • Ar Temp 42°f
  • Sea Pressure 1024.1mb
  • New Dungeness - 17 Nm Ne Of Port Angeles, Wa
  • New Dungeness - 17 Nm Ne Of Port Angeles, Wa

More Historic Weather Station data

Upgrade to MSW Pro to gain access to the past 30 days of data for over 8000 Wavebouys and Weather Stations around the globe.

Join Pro

Comparision Forecast

View Surf forecast
   
Sex 02/24 9:50 1.3ft 3s 3s 20 22 mph 1024.1mb 46f 42f
9:20 0.7ft  -  3s 20 25 mph 1024mb 46f 42f
8:50 0.7ft  -  3s 16 18 mph 1023.8mb 46f 43f
8:20 0.7ft  -  3s 13 16 mph 1023.3mb 46f 43f
7:50 1ft 3s 3s 16 18 mph 1023.1mb 46f 43f
7:20 1ft 3s 3s 16 18 mph 1022.9mb 46f 43f
6:50 1ft 3s 3s 13 16 mph 1022.7mb 46f 43f
6:20 1ft 3s 3s 9 11 mph 1022.4mb 46f 44f
5:50 1.3ft 3s 3s 11 13 mph 1022mb 46f 44f
5:20 1.6ft 4s 3s 11 16 mph 1021.6mb 46f 44f
4:50 1.6ft 4s 3s 13 16 mph 1021.6mb 46f 43f
4:20 2ft 4s 3s 13 16 mph 1021.4mb 46f 43f
3:50 2ft 4s 3s 13 16 mph 1021.3mb 46f 43f
3:20 2.5ft 4s 3s 16 20 mph 1021mb 46f 43f
2:50 2.5ft 4s 4s 18 20 mph 1020.8mb 46f 42f
2:20 2.5ft 4s 4s 18 22 mph 1020.8mb 46f 42f
1:50 2.5ft 4s 4s 20 25 mph 1020.7mb 46f 42f
1:20 2.5ft 4s 3s 20 22 mph 1020.8mb 46f 42f
12:50 2ft 4s 3s 20 22 mph 1020.8mb 46f 41f
12:20 2ft 4s 3s 20 22 mph 1020.8mb 46f 41f
11:50 1.6ft 3s 3s 20 22 mph 1020.6mb 46f 41f
11:20 1.3ft 3s 3s 16 18 mph 1020.7mb 46f 40f
10:50 1.3ft 3s 3s 16 18 mph 1020.6mb 46f 40f
10:20 1.3ft 3s 3s 11 13 mph 1020.4mb 46f 39f
9:50 1.6ft 3s 3s 9 13 mph 1020.2mb 46f 38f
9:20 1.6ft 3s 3s 13 16 mph 1020mb 46f 38f
8:50 1.6ft 3s 3s 13 18 mph 1019.8mb 46f 38f
8:20 1.6ft 3s 3s 13 18 mph 1019.7mb 46f 38f
7:50 1.6ft 3s 3s 16 18 mph 1019.5mb 46f 38f
7:20 1.6ft 3s 3s 13 16 mph 1019.4mb 46f 38f
6:50 1.3ft 3s 3s 13 16 mph 1019.4mb 46f 38f
6:20 1.3ft 3s 3s 13 16 mph 1019.2mb 46f 38f
5:50 1.3ft 3s 3s 13 16 mph 1019.1mb 46f 39f
5:20 1ft 3s 3s 13 16 mph 1019.1mb 46f 39f
4:50 1ft 3s 3s 11 13 mph 1019mb 46f 39f
4:20 0.3ft  -  3s 13
mph
1019.1mb 46f 40f
3:50 0.3ft  -  4s 11
mph
1019.1mb 46f 41f
3:20 0.3ft  -  4s 7 9 mph 1019.2mb 46f 41f
2:50 0.3ft  -  4s 7 9 mph 1019.3mb 46f 41f
2:20 0.7ft  -  4s 7
mph
1019.6mb 46f 41f
1:50 0.7ft  -  4s 4 9 mph 1019.8mb 46f 41f
1:20 0.7ft  -  5s 2 4 mph 1020mb 46f 41f
12:50 1ft 7s 5s 7 9 mph 1020.2mb 46f 41f
12:20 1ft 7s 5s 4 7 mph 1020.5mb 46f 41f
Qui 02/23 11:50 1ft 7s 5s 4
mph
1020.7mb 46f 41f
11:20 1ft 8s 5s 7 9 mph 1021.1mb 46f 41f
10:50 1ft 8s 6s 7 11 mph 1021.1mb 46f 42f
10:20 1ft 7s 6s 9 11 mph 1021.2mb 46f 42f
9:50 0.7ft  -  6s 7 9 mph 1021.2mb 46f 42f
9:20 0.7ft  -  6s 7 9 mph 1021.3mb 46f 42f
8:50 0.7ft  -  5s 9
mph
1021.3mb 46f 42f
8:20 0.3ft  -  5s 7 9 mph 1021.5mb 46f 42f
7:50 0.3ft  -  4s 7 9 mph 1021.7mb 46f 42f
7:20 0.3ft  -  5s 7 9 mph 1021.9mb 46f 42f
6:50 0.3ft  -  5s 7 9 mph 1022.1mb 46f 42f
6:20 0.3ft  -  5s 7 9 mph 1022.2mb 46f 42f
5:50 0.3ft  -  4s 4 7 mph 1022.4mb 46f 42f
5:20 0.3ft  -  4s 4 7 mph 1022.5mb 46f 42f
4:50 0.3ft  -  4s 7 9 mph 1022.5mb 46f 42f
4:20 0.3ft  -  4s 7 9 mph 1022.6mb 46f 42f
3:50 0.3ft  -  4s 4 7 mph 1022.8mb 46f 42f
3:20 0.3ft  -  4s 4
mph
1023mb 46f 42f
2:50 0.3ft  -  4s 4 9 mph 1023.3mb 46f 41f
2:20 0.3ft  -  4s 2 4 mph 1023.6mb 46f 41f
1:50 0.3ft  -  4s 2 4 mph 1023.7mb 46f 41f
1:20 0.3ft  -  4s 4 7 mph 1024mb 46f 41f
12:50 0.7ft  -  3s 7
mph
1024.1mb 46f 41f
12:20 0.7ft  -  3s 7 9 mph 1024.6mb 46f 40f
11:50 0.7ft  -  3s 9 11 mph 1024.6mb 46f 40f
11:20 0.7ft  -  3s 11
mph
1024.6mb 46f 40f
10:50 1ft 8s 4s 9 11 mph 1024.7mb 46f 40f
10:20 0.7ft  -  3s 9 11 mph 1024.7mb 46f 40f
9:50 1ft 8s 4s 11 13 mph 1024.7mb 46f 40f
9:20 0.7ft  -  3s 11 13 mph 1024.5mb 46f 40f
8:50 0.3ft  -  3s 9 11 mph 1024.4mb 46f 40f
8:20 0.7ft  -  3s 9 11 mph 1024.5mb 46f 39f
7:50 0.7ft  -  3s 9 11 mph 1024.3mb 46f 40f
7:20 0.3ft  -  3s 9 11 mph 1024mb 46f 40f
6:50 0.7ft  -  3s 7 9 mph 1023.7mb 46f 40f
6:20 0.7ft  -  3s 9 11 mph 1023.5mb 46f 40f
5:50 1ft 6s 3s 11 13 mph 1023.6mb 46f 40f
5:20 1ft 3s 3s 11 13 mph 1023.5mb 46f 40f
4:50 1ft 3s 3s 11 13 mph 1023.5mb 46f 40f
4:20 1ft 3s 3s 9 13 mph 1023.3mb 46f 41f
3:50 1ft 3s 3s 9 11 mph 1023.2mb 46f 40f
3:20 0.7ft  -  3s 13 16 mph 1023mb 46f 40f
2:50 0.7ft  -  3s 13 18 mph 1023mb 46f 41f
2:20 0.7ft  -  3s 11 16 mph 1023.1mb 46f 42f
1:50 0.7ft  -  3s 7 9 mph 1023.1mb 46f 41f
12:50 0.7ft  -  3s 11 13 mph 1023.1mb 46f 41f
Qua 02/22 11:50 0.7ft  -  4s  -  2 mph 1023mb 46f 42f
10:50 0.7ft  -  3s  -  2 mph 1022.9mb 46f 42f
9:50 0.7ft  -  4s 4 7 mph 1022.8mb 46f 42f
8:50 0.7ft  -  4s 4 7 mph 1022.5mb 46f 42f
7:50 0.7ft  -  4s 4
mph
1022.4mb 46f 43f
6:50 0.3ft  -  4s 2 4 mph 1022.5mb 46f 43f
5:50 0.3ft  -  4s 4
mph
1022.2mb 46f 43f
4:50 0.7ft  -  5s 2
mph
1022mb 46f 43f
3:50 0.3ft  -  4s 2 4 mph 1021.9mb 47f 43f
2:50 0.7ft  -  4s 4 7 mph 1021.8mb 46f 42f
1:50 0.7ft  -  4s 4
mph
1021.8mb 46f 43f
12:50 0.7ft  -  4s 4
mph
1021.9mb 46f 42f
11:50 1ft 6s 4s 4 7 mph 1022.1mb 46f 42f
10:50 1ft 4s 4s 7 9 mph 1022.3mb 46f 42f
9:50 1ft 3s 3s 7 9 mph 1022.2mb 46f 42f
8:50 1.3ft 4s 3s 9 11 mph 1021.7mb 46f 42f
7:50 1.3ft 4s 3s 16 18 mph 1021.3mb 46f 42f
6:50 1.6ft 4s 4s 16 18 mph 1021mb 46f 41f
5:50 1.3ft 3s 3s 16 18 mph 1021mb 46f 42f
4:50 1.3ft 3s 3s 13 16 mph 1020.9mb 46f 42f
2:50 1.6ft 3s 3s 16 18 mph 1020.6mb 46f 43f
2:20 2ft 3s 3s 18 22 mph 1020.5mb 46f 43f
1:50 2ft 3s 3s 18 22 mph 1020.5mb 46f 43f
1:20 2.5ft 3s 3s 18 20 mph 1020.4mb 46f 42f
12:50 2.5ft 4s 3s 16 18 mph 1020.3mb 46f 42f
12:20 3ft 4s 4s 20 25 mph 1019.9mb 46f 44f
Ter 02/21 11:50 3ft 4s 4s 20 22 mph 1019.6mb 46f 44f
11:20 3ft 4s 4s 22 25 mph 1019.2mb 46f 44f
10:50 3.5ft 4s 4s 20 25 mph 1019.2mb 46f 44f
10:20 4ft 5s 4s 22 27 mph 1018.9mb 46f 44f
9:50 4ft 5s 4s 22 27 mph 1018.5mb 46f 44f
9:20 4.5ft 5s 4s 25 29 mph 1018.3mb 46f 44f
8:50 4.5ft 5s 4s 27 34 mph 1017.8mb 46f 44f
8:20 4ft 5s 4s 25 31 mph 1017.7mb 46f 45f
7:50 4ft 6s 5s 22 27 mph 1017.6mb 46f 45f
7:20 4.5ft 6s 5s 25 31 mph 1017mb 46f 46f
6:50 4ft 6s 5s 25 29 mph 1016.8mb 46f 45f
6:20 3.5ft 6s 5s 22 29 mph 1016.5mb 46f 46f
5:50 3.5ft 5s 4s 22 29 mph 1016.1mb 46f 46f
5:20 3.5ft 5s 4s 25 31 mph 1015.7mb 46f 46f
4:50 3.5ft 6s 5s 25 29 mph 1015.3mb 46f 46f
4:20 3.5ft 5s 4s 25 29 mph 1014.7mb 46f 46f
3:50 3ft 5s 4s 25 31 mph 1014.4mb 46f 46f
3:20 3ft 5s 4s 25 31 mph 1013.9mb 46f 46f
2:50 3ft 5s 4s 25 29 mph 1013.5mb 46f 46f
2:20 2.5ft 4s 4s 25 29 mph 1013.1mb 46f 46f
1:50 1.6ft 4s 3s 22 27 mph 1013.1mb 46f 46f
1:20 1ft 3s 3s 20 25 mph 1013mb 46f 46f
12:50 0.7ft  -  3s 16 18 mph 1013.1mb 46f 46f
12:20 0.3ft  -  3s 9 11 mph 1013.1mb 46f 46f
11:50 0.3ft  -  3s  -  4 mph 1013mb 46f 44f
11:20 0.3ft  -  3s 2 4 mph 1012.6mb 46f 44f
10:50 0.7ft  -  3s 4
mph
1012.3mb 46f 44f
10:20 1ft 6s 3s 7
mph
1011.7mb 46f 44f
9:50 1ft 3s 3s 11
mph
1011.1mb 46f 43f
9:20 1.3ft 3s 3s 11 13 mph 1010.5mb 46f 43f
8:50 1.3ft 3s 3s 16 18 mph 1009.8mb 46f 43f
8:20 1.3ft 3s 3s 18 20 mph 1009.2mb 46f 43f
7:50 1ft 3s 3s 18 20 mph 1008.6mb 46f 43f
7:20 1ft 2s 3s 20 22 mph 1007.9mb 46f 43f